Time;durP1;ratioP1;P1;durP2;ratioP2;P2;SDS_P1;SDS_P2;PMS_P1;PMS_P2;Temp;Humidity;BMP_temperature;BMP_pressure;BME280_temperature;BME280_humidity;BME280_pressure;Samples;Min_cycle;Max_cycle;Signal;HPM_P1;HPM_P2
2022/02/05 00:06:44;;;;;;;20.80;13.50;;;;;;;3.13;83.13;98437.65;440912;1252;142092;-66
2022/02/05 00:48:06;;;;;;;14.80;9.80;;;;;;;3.22;82.43;98396.98;437595;1252;146112;-65
2022/02/05 00:58:09;;;;;;;12.40;8.50;;;;;;;3.24;82.40;98386.21;441119;1252;141247;-67
2022/02/05 01:08:13;;;;;;;11.70;8.90;;;;;;;3.24;82.25;98372.04;443390;1252;142459;-60
2022/02/05 01:18:18;;;;;;;13.00;8.30;;;;;;;3.26;82.20;98365.54;437641;1252;140755;-60
2022/02/05 01:28:27;;;;;;;9.80;7.70;;;;;;;3.28;82.25;98355.70;441157;1253;142117;-60
2022/02/05 01:49:20;;;;;;;7.90;6.40;;;;;;;3.48;81.87;98346.14;436861;1256;141638;-61
2022/02/05 01:59:34;;;;;;;8.60;5.30;;;;;;;3.50;82.21;98344.14;441368;1252;140576;-60
2022/02/05 02:09:52;;;;;;;6.40;4.50;;;;;;;3.50;82.38;98339.65;439327;1252;140660;-59
2022/02/05 02:30:20;;;;;;;5.70;3.70;;;;;;;3.53;82.45;98331.18;437327;1253;145394;-60
2022/02/05 02:40:29;;;;;;;6.50;3.90;;;;;;;3.51;82.93;98324.05;442152;1254;140810;-61
2022/02/05 02:56:23;;;;;;;5.70;4.30;;;;;;;3.43;83.09;98318.57;440992;1253;140545;-61
2022/02/05 03:00:59;;;;;;;5.30;3.70;;;;;;;3.40;83.37;98315.48;438996;1255;140705;-60
2022/02/05 03:11:03;;;;;;;4.50;3.80;;;;;;;3.38;83.18;98314.86;439324;1253;140702;-60
2022/02/05 03:21:06;;;;;;;4.80;3.50;;;;;;;3.37;83.22;98310.73;438330;1253;144367;-59
2022/02/05 03:31:10;;;;;;;2.00;1.50;;;;;;;3.48;83.33;98337.50;442070;1252;144877;-60
2022/02/05 03:41:13;;;;;;;2.00;1.10;;;;;;;3.46;83.28;98391.79;438055;1253;140241;-60
2022/02/05 03:51:16;;;;;;;0.70;0.50;;;;;;;3.26;82.82;98432.25;441350;1252;141464;-60
2022/02/05 04:01:19;;;;;;;0.60;0.60;;;;;;;3.05;81.57;98480.72;442872;1253;141004;-60
2022/02/05 04:11:32;;;;;;;1.00;1.00;;;;;;;2.78;80.34;98513.19;442464;1252;141263;-61
2022/02/05 04:21:35;;;;;;;1.80;0.90;;;;;;;2.49;79.65;98546.17;439976;1253;140615;-61
2022/02/05 04:31:39;;;;;;;0.50;0.50;;;;;;;2.27;78.65;98564.15;442659;1252;141289;-61
2022/02/05 04:41:49;;;;;;;0.60;0.50;;;;;;;2.09;78.73;98603.94;444171;1252;142916;-60
2022/02/05 04:52:07;;;;;;;0.40;0.40;;;;;;;2.01;78.42;98640.39;442995;1252;141442;-61
2022/02/05 05:02:29;;;;;;;0.60;0.50;;;;;;;1.83;78.47;98671.40;441964;1253;140942;-60
2022/02/05 05:12:48;;;;;;;0.70;0.30;;;;;;;1.76;78.73;98701.86;439981;1253;141047;-61
2022/02/05 05:22:51;;;;;;;1.10;0.50;;;;;;;1.74;78.61;98718.02;440399;1253;141614;-61
2022/02/05 05:32:54;;;;;;;0.20;0.20;;;;;;;1.68;78.58;98734.13;438437;1252;141684;-61
2022/02/05 05:43:02;;;;;;;0.70;0.70;;;;;;;1.63;79.02;98755.73;439172;1252;141033;-60
2022/02/05 05:53:08;;;;;;;0.90;0.70;;;;;;;1.55;79.50;98776.05;438950;1255;141338;-60
2022/02/05 06:03:11;;;;;;;0.70;0.50;;;;;;;1.48;79.86;98790.31;442354;1254;141163;-61
2022/02/05 06:13:14;;;;;;;0.90;0.80;;;;;;;1.33;80.30;98822.25;440104;1253;140383;-60
2022/02/05 06:23:18;;;;;;;1.70;1.50;;;;;;;1.11;80.96;98837.93;438380;1255;141075;-61
2022/02/05 06:33:21;;;;;;;1.30;1.10;;;;;;;0.85;81.11;98855.59;441213;1253;142035;-60
2022/02/05 06:43:24;;;;;;;1.90;0.90;;;;;;;0.82;81.21;98867.20;444455;1252;145536;-61
2022/02/05 06:53:27;;;;;;;1.80;1.00;;;;;;;1.22;81.08;98877.69;439692;1253;140741;-59
2022/02/05 07:03:30;;;;;;;2.60;1.50;;;;;;;1.62;80.40;98892.94;439406;1253;140573;-69
2022/02/05 07:13:33;;;;;;;2.80;1.90;;;;;;;1.67;80.38;98904.79;439850;1253;140910;-70
2022/02/05 07:23:52;;;;;;;1.60;1.20;;;;;;;1.69;80.06;98914.75;441205;1254;141063;-69
2022/02/05 07:33:55;;;;;;;1.70;1.10;;;;;;;1.84;79.88;98925.05;437872;1253;141385;-69
2022/02/05 07:43:58;;;;;;;3.00;1.90;;;;;;;2.05;79.46;98936.15;437771;1253;140917;-70
2022/02/05 07:54:01;;;;;;;1.80;1.30;;;;;;;2.00;79.34;98953.77;437597;1255;141276;-70
2022/02/05 08:04:05;;;;;;;2.70;2.00;;;;;;;1.99;79.36;98967.80;438601;1254;141045;-69
2022/02/05 08:14:11;;;;;;;3.10;1.80;;;;;;;1.86;79.69;98975.54;439429;1254;140991;-69
2022/02/05 08:24:14;;;;;;;4.90;2.80;;;;;;;1.77;79.83;98989.70;440134;1254;142219;-70
2022/02/05 08:34:17;;;;;;;4.40;2.40;;;;;;;1.77;80.07;98994.19;439249;1255;141747;-69
2022/02/05 08:44:20;;;;;;;7.50;2.30;;;;;;;1.97;80.30;99007.42;439736;1255;142135;-69
2022/02/05 08:54:24;;;;;;;3.20;1.90;;;;;;;2.25;80.07;98999.09;438609;1254;141226;-66
2022/02/05 09:04:33;;;;;;;5.30;1.90;;;;;;;2.52;79.62;99009.42;444362;1253;141557;-70
2022/02/05 09:14:41;;;;;;;4.90;3.10;;;;;;;2.59;79.12;99012.77;438209;1254;140843;-69
2022/02/05 09:24:44;;;;;;;4.80;2.20;;;;;;;2.77;78.73;99008.41;439183;1252;141770;-71
2022/02/05 09:34:48;;;;;;;3.00;2.30;;;;;;;3.07;78.20;99016.88;439007;1253;140487;-69
2022/02/05 09:44:52;;;;;;;2.50;1.70;;;;;;;3.28;78.15;99023.61;443570;1253;141517;-70
2022/02/05 09:54:55;;;;;;;4.70;3.20;;;;;;;3.36;77.71;99027.75;438195;1253;141066;-69
2022/02/05 10:05:03;;;;;;;5.40;2.70;;;;;;;3.28;77.21;99030.51;438843;1253;141359;-70
2022/02/05 10:15:33;;;;;;;6.30;3.10;;;;;;;3.46;77.09;99029.75;439301;1254;141592;-70
2022/02/05 10:25:36;;;;;;;6.20;3.90;;;;;;;3.58;77.09;99039.80;438747;1252;141208;-70
2022/02/05 10:35:46;;;;;;;5.60;3.30;;;;;;;3.74;77.13;99041.17;439570;1252;140530;-70
2022/02/05 10:45:51;;;;;;;4.60;2.80;;;;;;;3.79;76.55;99047.88;438528;1253;140846;-70
2022/02/05 10:56:03;;;;;;;3.20;2.70;;;;;;;4.11;76.97;99052.65;438841;1253;143393;-71
2022/02/05 11:06:06;;;;;;;7.60;3.00;;;;;;;4.76;76.43;99054.98;438096;1253;141309;-72
2022/02/05 11:26:44;;;;;;;6.90;2.70;;;;;;;4.88;74.26;99046.27;438191;1253;140805;-70
2022/02/05 11:37:00;;;;;;;4.30;2.50;;;;;;;4.74;73.72;99046.24;438905;1253;140510;-70
2022/02/05 11:47:28;;;;;;;7.50;2.30;;;;;;;4.55;72.82;99053.73;438872;1254;141744;-68
2022/02/05 11:57:57;;;;;;;2.90;2.40;;;;;;;4.30;72.95;99061.66;438777;1253;141417;-69
2022/02/05 12:08:20;;;;;;;4.50;2.10;;;;;;;4.10;72.68;99072.64;438854;1253;141382;-70
2022/02/05 12:18:27;;;;;;;8.30;3.50;;;;;;;3.91;71.91;99073.98;437459;1252;140849;-70
2022/02/05 12:28:34;;;;;;;5.40;1.80;;;;;;;3.70;72.09;99080.48;438392;1253;140742;-70
2022/02/05 12:38:39;;;;;;;3.80;1.80;;;;;;;3.60;72.03;99084.73;439200;1252;166695;-69
2022/02/05 12:48:50;;;;;;;2.90;2.20;;;;;;;3.51;71.90;99082.32;437259;1253;141351;-70
2022/02/05 12:58:56;;;;;;;2.10;1.40;;;;;;;3.47;71.83;99097.19;439914;1252;141198;-67
2022/02/05 13:08:59;;;;;;;5.70;1.80;;;;;;;3.14;72.70;99111.71;439052;1252;141152;-68
2022/02/05 13:19:19;;;;;;;4.00;1.90;;;;;;;2.41;74.32;99123.70;439791;1252;141087;-70
2022/02/05 13:29:35;;;;;;;4.80;2.80;;;;;;;2.53;75.46;99132.77;441568;1252;140604;-70
2022/02/05 13:39:51;;;;;;;6.90;3.00;;;;;;;3.09;75.24;99129.23;441375;1252;140837;-70
2022/02/05 13:50:15;;;;;;;2.60;2.10;;;;;;;3.28;74.16;99140.40;447389;1252;144321;-70
2022/02/05 14:00:19;;;;;;;6.00;3.00;;;;;;;3.24;73.74;99150.06;452047;1253;141079;-70
2022/02/05 14:10:24;;;;;;;7.50;2.70;;;;;;;3.08;73.51;99156.08;442850;1252;141286;-69
2022/02/05 14:20:27;;;;;;;4.60;3.10;;;;;;;2.89;73.95;99171.33;441888;1252;141050;-70
2022/02/05 14:30:31;;;;;;;3.10;2.10;;;;;;;2.62;74.30;99191.17;438497;1252;141898;-70
2022/02/05 14:40:43;;;;;;;5.10;2.00;;;;;;;2.01;74.67;99200.81;450774;1253;140824;-69
2022/02/05 14:51:04;;;;;;;2.00;1.70;;;;;;;1.52;75.90;99222.45;437420;1254;141244;-69
2022/02/05 15:01:08;;;;;;;6.10;2.50;;;;;;;1.37;76.63;99233.64;438840;1253;141539;-59
2022/02/05 15:11:11;;;;;;;7.40;3.10;;;;;;;1.22;76.94;99250.99;439443;1253;141356;-60
2022/02/05 15:21:14;;;;;;;5.10;2.70;;;;;;;1.09;77.24;99276.38;442365;1252;183210;-61
2022/02/05 15:31:18;;;;;;;5.70;2.40;;;;;;;1.15;77.40;99289.99;437868;1253;141283;-62
2022/02/05 15:52:02;;;;;;;4.90;2.90;;;;;;;1.09;77.43;99317.08;453560;1252;141450;-62
2022/02/05 16:02:05;;;;;;;11.20;3.80;;;;;;;1.00;77.71;99324.92;453644;1252;141416;-61
2022/02/05 16:12:10;;;;;;;7.10;4.10;;;;;;;0.86;77.78;99336.71;448888;1252;141014;-61
2022/02/05 16:22:14;;;;;;;5.80;3.80;;;;;;;0.60;78.10;99348.23;441089;1252;140600;-60
2022/02/05 16:32:17;;;;;;;6.90;4.10;;;;;;;0.44;78.56;99359.71;439923;1253;140899;-62
2022/02/05 16:42:21;;;;;;;7.80;4.00;;;;;;;0.44;78.81;99364.00;439998;1253;141784;-62
2022/02/05 16:52:27;;;;;;;5.20;2.50;;;;;;;0.68;78.75;99373.71;440459;1253;140937;-61
2022/02/05 17:02:30;;;;;;;7.00;3.00;;;;;;;0.77;78.49;99384.33;438363;1252;141054;-61
2022/02/05 17:12:33;;;;;;;10.30;4.60;;;;;;;0.65;78.47;99398.24;438182;1253;141624;-60
2022/02/05 17:22:36;;;;;;;4.80;3.10;;;;;;;0.47;78.42;99408.70;438754;1253;142468;-62
2022/02/05 17:32:44;;;;;;;5.20;3.10;;;;;;;0.23;78.54;99420.32;438056;1253;143959;-61
2022/02/05 17:42:48;;;;;;;5.50;3.30;;;;;;;0.09;78.70;99427.18;439264;1253;141730;-61
2022/02/05 17:52:51;;;;;;;5.60;3.30;;;;;;;0.21;79.04;99429.46;438907;1253;141285;-62
2022/02/05 18:03:00;;;;;;;4.00;2.50;;;;;;;0.38;78.88;99441.13;438186;1253;140994;-62
2022/02/05 18:13:10;;;;;;;10.80;4.20;;;;;;;0.52;78.73;99439.23;438691;1253;141234;-62
2022/02/05 18:23:14;;;;;;;5.50;2.90;;;;;;;0.69;78.50;99441.58;438808;1253;142408;-61
2022/02/05 18:33:17;;;;;;;8.40;3.80;;;;;;;0.80;78.23;99432.33;438163;1253;143593;-61
2022/02/05 18:43:21;;;;;;;7.30;2.70;;;;;;;0.91;77.87;99435.49;437755;1256;142006;-68
2022/02/05 18:58:35;;;;;;;12.00;4.80;;;;;;;0.92;77.96;99429.77;421168;1310;601171;-68
2022/02/05 19:19:06;;;;;;;19.30;7.40;;;;;;;0.83;78.08;99448.42;428160;1280;141821;-67
2022/02/05 19:29:12;;;;;;;38.10;17.70;;;;;;;0.80;78.00;99447.84;427317;1280;141529;-67
2022/02/05 19:39:18;;;;;;;18.50;8.40;;;;;;;0.68;78.22;99452.96;432467;1275;140914;-66
2022/02/05 19:49:25;;;;;;;15.80;9.30;;;;;;;0.54;78.34;99451.42;433230;1276;140631;-68
2022/02/05 19:59:30;;;;;;;19.50;8.00;;;;;;;0.45;78.64;99444.23;435095;1276;141419;-70
2022/02/05 20:09:36;;;;;;;15.10;8.90;;;;;;;0.45;78.57;99442.01;429186;1276;140955;-70
2022/02/05 20:19:42;;;;;;;32.00;16.70;;;;;;;0.31;78.65;99434.76;429389;1276;144138;-72
2022/02/05 20:29:49;;;;;;;25.90;13.50;;;;;;;-0.02;79.10;99429.33;429666;1274;141845;-69
2022/02/05 20:39:55;;;;;;;18.30;8.50;;;;;;;-0.10;79.42;99430.04;429904;1274;141421;-71
2022/02/05 20:50:05;;;;;;;22.70;9.50;;;;;;;-0.01;79.68;99422.43;430291;1275;141729;-71
2022/02/05 21:00:14;;;;;;;18.40;8.70;;;;;;;0.08;79.74;99413.95;431391;1274;141289;-70
2022/02/05 21:10:20;;;;;;;13.10;8.20;;;;;;;0.14;79.44;99401.77;429840;1274;141945;-69
2022/02/05 21:20:26;;;;;;;14.10;7.90;;;;;;;0.13;79.58;99395.27;429768;1274;141070;-70
2022/02/05 21:30:40;;;;;;;17.40;8.60;;;;;;;0.09;79.51;99388.10;429681;1274;142397;-70
2022/02/05 21:40:46;;;;;;;14.80;8.00;;;;;;;0.10;79.80;99386.72;431290;1274;141424;-69
2022/02/05 21:50:58;;;;;;;12.60;7.00;;;;;;;0.14;79.65;99376.13;429322;1274;141499;-69
2022/02/05 22:01:05;;;;;;;14.30;8.40;;;;;;;0.15;79.45;99374.04;431386;1274;142180;-70
2022/02/05 22:11:10;;;;;;;13.60;7.80;;;;;;;0.17;79.22;99367.61;430275;1274;140575;-72
2022/02/05 22:21:22;;;;;;;14.70;6.80;;;;;;;-0.07;79.47;99357.16;434864;1273;194598;-70
2022/02/05 22:31:28;;;;;;;15.50;7.70;;;;;;;-0.30;79.52;99351.02;429894;1273;141312;-69
2022/02/05 22:41:34;;;;;;;11.80;6.90;;;;;;;-0.21;79.92;99335.13;431076;1274;140673;-70
2022/02/05 22:51:42;;;;;;;15.20;8.10;;;;;;;-0.07;79.76;99333.60;431697;1274;142107;-70
2022/02/05 23:01:48;;;;;;;14.00;8.00;;;;;;;-0.07;79.60;99317.25;430846;1274;141970;-70
2022/02/05 23:42:56;;;;;;;10.10;6.30;;;;;;;0.33;79.11;99281.80;433123;1274;141914;-61
2022/02/05 23:53:02;;;;;;;8.10;4.60;;;;;;;0.51;78.77;99268.22;430995;1274;140819;-59
